sensor_id;sensor_type;location;lat;lon;timestamp;P1;durP1;ratioP1;P2;durP2;ratioP2
39426;SDS011;25938;48.470;1.486;2022-11-15T00:01:35;5.07;;;1.73;;
39426;SDS011;25938;48.470;1.486;2022-11-15T00:04:04;2.75;;;1.50;;
39426;SDS011;25938;48.470;1.486;2022-11-15T00:06:30;3.90;;;2.03;;
39426;SDS011;25938;48.470;1.486;2022-11-15T00:08:59;4.15;;;2.35;;
39426;SDS011;25938;48.470;1.486;2022-11-15T00:11:26;4.00;;;1.13;;
39426;SDS011;25938;48.470;1.486;2022-11-15T00:13:55;4.82;;;1.15;;
39426;SDS011;25938;48.470;1.486;2022-11-15T00:16:22;5.05;;;1.05;;
39426;SDS011;25938;48.470;1.486;2022-11-15T00:18:48;5.35;;;0.75;;
39426;SDS011;25938;48.470;1.486;2022-11-15T00:21:14;8.13;;;1.63;;
39426;SDS011;25938;48.470;1.486;2022-11-15T00:23:40;1.25;;;0.57;;
39426;SDS011;25938;48.470;1.486;2022-11-15T00:26:07;2.90;;;0.63;;
39426;SDS011;25938;48.470;1.486;2022-11-15T00:28:36;2.85;;;0.57;;
39426;SDS011;25938;48.470;1.486;2022-11-15T00:31:03;2.92;;;0.90;;
39426;SDS011;25938;48.470;1.486;2022-11-15T00:33:29;3.03;;;0.93;;
39426;SDS011;25938;48.470;1.486;2022-11-15T00:35:59;4.13;;;1.15;;
39426;SDS011;25938;48.470;1.486;2022-11-15T00:38:29;3.53;;;0.65;;
39426;SDS011;25938;48.470;1.486;2022-11-15T00:40:55;1.10;;;0.57;;
39426;SDS011;25938;48.470;1.486;2022-11-15T00:43:21;3.20;;;0.93;;
39426;SDS011;25938;48.470;1.486;2022-11-15T00:45:47;4.22;;;0.60;;
39426;SDS011;25938;48.470;1.486;2022-11-15T00:48:13;3.85;;;1.35;;
39426;SDS011;25938;48.470;1.486;2022-11-15T00:50:39;2.90;;;0.88;;
39426;SDS011;25938;48.470;1.486;2022-11-15T00:53:06;3.72;;;0.90;;
39426;SDS011;25938;48.470;1.486;2022-11-15T00:55:32;1.98;;;0.73;;
39426;SDS011;25938;48.470;1.486;2022-11-15T00:57:58;3.08;;;0.95;;
39426;SDS011;25938;48.470;1.486;2022-11-15T01:00:24;3.03;;;1.13;;
39426;SDS011;25938;48.470;1.486;2022-11-15T01:02:50;2.67;;;0.80;;
39426;SDS011;25938;48.470;1.486;2022-11-15T01:05:16;2.67;;;0.88;;
39426;SDS011;25938;48.470;1.486;2022-11-15T01:07:42;4.47;;;0.50;;
39426;SDS011;25938;48.470;1.486;2022-11-15T01:10:08;4.68;;;1.15;;
39426;SDS011;25938;48.470;1.486;2022-11-15T01:12:35;2.30;;;0.80;;
39426;SDS011;25938;48.470;1.486;2022-11-15T01:15:01;3.15;;;0.90;;
39426;SDS011;25938;48.470;1.486;2022-11-15T01:17:27;5.80;;;2.33;;
39426;SDS011;25938;48.470;1.486;2022-11-15T01:19:53;3.17;;;0.75;;
39426;SDS011;25938;48.470;1.486;2022-11-15T01:22:19;2.30;;;0.50;;
39426;SDS011;25938;48.470;1.486;2022-11-15T01:24:45;3.10;;;0.60;;
39426;SDS011;25938;48.470;1.486;2022-11-15T01:27:11;2.67;;;0.73;;
39426;SDS011;25938;48.470;1.486;2022-11-15T01:29:37;2.30;;;0.90;;
39426;SDS011;25938;48.470;1.486;2022-11-15T01:32:03;3.08;;;0.60;;
39426;SDS011;25938;48.470;1.486;2022-11-15T01:34:29;2.97;;;0.70;;
39426;SDS011;25938;48.470;1.486;2022-11-15T01:36:55;2.10;;;0.50;;
39426;SDS011;25938;48.470;1.486;2022-11-15T01:39:21;1.70;;;0.55;;
39426;SDS011;25938;48.470;1.486;2022-11-15T01:41:48;0.82;;;0.57;;
39426;SDS011;25938;48.470;1.486;2022-11-15T01:46:59;3.90;;;0.70;;
39426;SDS011;25938;48.470;1.486;2022-11-15T01:49:26;2.20;;;0.75;;
39426;SDS011;25938;48.470;1.486;2022-11-15T01:51:54;1.02;;;0.50;;
39426;SDS011;25938;48.470;1.486;2022-11-15T01:54:20;3.90;;;0.68;;
39426;SDS011;25938;48.470;1.486;2022-11-15T01:56:51;3.35;;;1.38;;
39426;SDS011;25938;48.470;1.486;2022-11-15T01:59:18;1.88;;;0.40;;
39426;SDS011;25938;48.470;1.486;2022-11-15T02:01:45;2.20;;;0.68;;
39426;SDS011;25938;48.470;1.486;2022-11-15T02:04:13;3.58;;;1.25;;
39426;SDS011;25938;48.470;1.486;2022-11-15T02:06:39;3.22;;;1.13;;
39426;SDS011;25938;48.470;1.486;2022-11-15T02:09:06;2.72;;;1.02;;
39426;SDS011;25938;48.470;1.486;2022-11-15T02:11:32;3.75;;;0.57;;
39426;SDS011;25938;48.470;1.486;2022-11-15T02:13:58;5.57;;;1.23;;
39426;SDS011;25938;48.470;1.486;2022-11-15T02:17:08;4.63;;;1.02;;
39426;SDS011;25938;48.470;1.486;2022-11-15T02:30:49;1.88;;;0.65;;
39426;SDS011;25938;48.470;1.486;2022-11-15T02:37:57;5.20;;;0.80;;
39426;SDS011;25938;48.470;1.486;2022-11-15T02:43:09;3.25;;;0.73;;
39426;SDS011;25938;48.470;1.486;2022-11-15T02:46:06;2.65;;;0.68;;
39426;SDS011;25938;48.470;1.486;2022-11-15T02:48:34;2.88;;;0.38;;
39426;SDS011;25938;48.470;1.486;2022-11-15T02:51:00;3.92;;;0.73;;
39426;SDS011;25938;48.470;1.486;2022-11-15T02:53:26;1.77;;;0.55;;
39426;SDS011;25938;48.470;1.486;2022-11-15T02:55:53;3.72;;;0.85;;
39426;SDS011;25938;48.470;1.486;2022-11-15T03:08:22;2.00;;;0.35;;
39426;SDS011;25938;48.470;1.486;2022-11-15T03:11:08;1.80;;;0.38;;
39426;SDS011;25938;48.470;1.486;2022-11-15T03:16:05;4.35;;;0.50;;
39426;SDS011;25938;48.470;1.486;2022-11-15T03:18:38;1.55;;;0.95;;
39426;SDS011;25938;48.470;1.486;2022-11-15T03:21:07;5.30;;;1.17;;
39426;SDS011;25938;48.470;1.486;2022-11-15T03:23:33;1.48;;;0.70;;
39426;SDS011;25938;48.470;1.486;2022-11-15T03:26:00;3.50;;;0.85;;
39426;SDS011;25938;48.470;1.486;2022-11-15T03:28:36;1.67;;;0.70;;
39426;SDS011;25938;48.470;1.486;2022-11-15T03:31:04;1.30;;;0.75;;
39426;SDS011;25938;48.470;1.486;2022-11-15T03:33:51;2.20;;;0.75;;
39426;SDS011;25938;48.470;1.486;2022-11-15T03:36:19;2.33;;;0.60;;
39426;SDS011;25938;48.470;1.486;2022-11-15T03:38:45;3.10;;;0.85;;
39426;SDS011;25938;48.470;1.486;2022-11-15T03:41:21;3.92;;;0.55;;
39426;SDS011;25938;48.470;1.486;2022-11-15T03:47:30;4.55;;;0.65;;
39426;SDS011;25938;48.470;1.486;2022-11-15T03:49:36;2.92;;;0.50;;
39426;SDS011;25938;48.470;1.486;2022-11-15T03:52:04;5.07;;;0.60;;
39426;SDS011;25938;48.470;1.486;2022-11-15T03:54:30;1.23;;;0.63;;
39426;SDS011;25938;48.470;1.486;2022-11-15T03:56:56;4.45;;;2.35;;
39426;SDS011;25938;48.470;1.486;2022-11-15T03:59:22;1.77;;;0.70;;
39426;SDS011;25938;48.470;1.486;2022-11-15T04:01:49;2.95;;;0.52;;
39426;SDS011;25938;48.470;1.486;2022-11-15T04:04:15;4.40;;;1.42;;
39426;SDS011;25938;48.470;1.486;2022-11-15T04:06:41;2.95;;;0.65;;
39426;SDS011;25938;48.470;1.486;2022-11-15T04:09:07;4.07;;;0.40;;
39426;SDS011;25938;48.470;1.486;2022-11-15T04:11:33;4.07;;;0.90;;
39426;SDS011;25938;48.470;1.486;2022-11-15T04:13:59;3.95;;;1.02;;
39426;SDS011;25938;48.470;1.486;2022-11-15T04:16:25;3.58;;;0.28;;
39426;SDS011;25938;48.470;1.486;2022-11-15T04:18:51;3.47;;;0.85;;
39426;SDS011;25938;48.470;1.486;2022-11-15T04:21:36;3.47;;;0.43;;
39426;SDS011;25938;48.470;1.486;2022-11-15T04:24:20;2.15;;;0.30;;
39426;SDS011;25938;48.470;1.486;2022-11-15T04:26:47;5.47;;;0.60;;
39426;SDS011;25938;48.470;1.486;2022-11-15T04:29:13;2.35;;;0.35;;
39426;SDS011;25938;48.470;1.486;2022-11-15T04:31:57;2.00;;;0.40;;
39426;SDS011;25938;48.470;1.486;2022-11-15T04:34:23;1.27;;;0.20;;
39426;SDS011;25938;48.470;1.486;2022-11-15T04:36:49;2.75;;;1.00;;
39426;SDS011;25938;48.470;1.486;2022-11-15T04:39:34;2.25;;;0.60;;
39426;SDS011;25938;48.470;1.486;2022-11-15T04:42:00;5.38;;;1.77;;
39426;SDS011;25938;48.470;1.486;2022-11-15T04:44:26;2.33;;;0.73;;
39426;SDS011;25938;48.470;1.486;2022-11-15T04:46:52;2.60;;;0.50;;
39426;SDS011;25938;48.470;1.486;2022-11-15T04:49:18;1.33;;;0.50;;
39426;SDS011;25938;48.470;1.486;2022-11-15T04:51:44;1.65;;;0.45;;
39426;SDS011;25938;48.470;1.486;2022-11-15T04:54:10;3.88;;;0.60;;
39426;SDS011;25938;48.470;1.486;2022-11-15T04:56:36;1.63;;;0.40;;
39426;SDS011;25938;48.470;1.486;2022-11-15T04:59:02;1.30;;;0.88;;
39426;SDS011;25938;48.470;1.486;2022-11-15T05:01:28;3.92;;;0.40;;
39426;SDS011;25938;48.470;1.486;2022-11-15T05:03:54;3.05;;;0.55;;
39426;SDS011;25938;48.470;1.486;2022-11-15T05:06:39;1.13;;;0.57;;
39426;SDS011;25938;48.470;1.486;2022-11-15T05:09:05;2.78;;;0.75;;
39426;SDS011;25938;48.470;1.486;2022-11-15T05:11:31;1.95;;;0.20;;
39426;SDS011;25938;48.470;1.486;2022-11-15T05:13:57;4.40;;;0.57;;
39426;SDS011;25938;48.470;1.486;2022-11-15T05:16:23;3.90;;;0.35;;
39426;SDS011;25938;48.470;1.486;2022-11-15T05:18:53;2.72;;;0.50;;
39426;SDS011;25938;48.470;1.486;2022-11-15T05:21:19;1.23;;;0.40;;
39426;SDS011;25938;48.470;1.486;2022-11-15T05:23:45;3.03;;;1.30;;
39426;SDS011;25938;48.470;1.486;2022-11-15T05:26:12;3.85;;;1.35;;
39426;SDS011;25938;48.470;1.486;2022-11-15T05:28:38;4.00;;;0.45;;
39426;SDS011;25938;48.470;1.486;2022-11-15T05:31:09;2.00;;;0.40;;
39426;SDS011;25938;48.470;1.486;2022-11-15T05:33:35;1.35;;;0.38;;
39426;SDS011;25938;48.470;1.486;2022-11-15T05:36:06;3.78;;;0.70;;
39426;SDS011;25938;48.470;1.486;2022-11-15T05:38:33;0.43;;;0.30;;
39426;SDS011;25938;48.470;1.486;2022-11-15T05:40:59;1.17;;;0.30;;
39426;SDS011;25938;48.470;1.486;2022-11-15T05:43:26;2.45;;;0.70;;
39426;SDS011;25938;48.470;1.486;2022-11-15T05:45:52;3.92;;;0.90;;
39426;SDS011;25938;48.470;1.486;2022-11-15T05:48:18;1.25;;;0.65;;
39426;SDS011;25938;48.470;1.486;2022-11-15T05:50:45;7.15;;;1.75;;
39426;SDS011;25938;48.470;1.486;2022-11-15T05:53:13;0.93;;;0.43;;
39426;SDS011;25938;48.470;1.486;2022-11-15T05:55:40;4.57;;;0.85;;
39426;SDS011;25938;48.470;1.486;2022-11-15T05:58:06;2.47;;;0.52;;
39426;SDS011;25938;48.470;1.486;2022-11-15T06:00:32;2.72;;;1.20;;
39426;SDS011;25938;48.470;1.486;2022-11-15T06:02:59;0.88;;;0.45;;
39426;SDS011;25938;48.470;1.486;2022-11-15T06:05:25;1.23;;;0.43;;
39426;SDS011;25938;48.470;1.486;2022-11-15T06:07:51;2.60;;;0.50;;
39426;SDS011;25938;48.470;1.486;2022-11-15T06:10:17;2.38;;;0.60;;
39426;SDS011;25938;48.470;1.486;2022-11-15T06:12:43;3.50;;;0.43;;
39426;SDS011;25938;48.470;1.486;2022-11-15T06:15:09;1.55;;;0.45;;
39426;SDS011;25938;48.470;1.486;2022-11-15T06:17:35;1.35;;;0.30;;
39426;SDS011;25938;48.470;1.486;2022-11-15T06:20:01;2.13;;;0.40;;
39426;SDS011;25938;48.470;1.486;2022-11-15T06:22:28;3.22;;;1.30;;
39426;SDS011;25938;48.470;1.486;2022-11-15T06:24:54;2.55;;;0.70;;
39426;SDS011;25938;48.470;1.486;2022-11-15T06:27:20;1.73;;;0.20;;
39426;SDS011;25938;48.470;1.486;2022-11-15T06:29:46;0.40;;;0.10;;
39426;SDS011;25938;48.470;1.486;2022-11-15T06:32:12;0.60;;;0.43;;
39426;SDS011;25938;48.470;1.486;2022-11-15T06:34:38;2.05;;;0.20;;
39426;SDS011;25938;48.470;1.486;2022-11-15T06:37:04;1.92;;;1.05;;
39426;SDS011;25938;48.470;1.486;2022-11-15T06:39:30;1.08;;;0.40;;
39426;SDS011;25938;48.470;1.486;2022-11-15T06:41:56;3.60;;;0.88;;
39426;SDS011;25938;48.470;1.486;2022-11-15T06:44:22;2.65;;;1.00;;
39426;SDS011;25938;48.470;1.486;2022-11-15T06:46:48;3.10;;;0.88;;
39426;SDS011;25938;48.470;1.486;2022-11-15T06:49:14;2.83;;;0.88;;
39426;SDS011;25938;48.470;1.486;2022-11-15T06:51:41;3.20;;;1.73;;
39426;SDS011;25938;48.470;1.486;2022-11-15T06:54:07;2.53;;;0.93;;
39426;SDS011;25938;48.470;1.486;2022-11-15T06:56:33;1.20;;;0.40;;
39426;SDS011;25938;48.470;1.486;2022-11-15T06:58:59;12.13;;;1.52;;
39426;SDS011;25938;48.470;1.486;2022-11-15T07:01:26;1.35;;;0.43;;
39426;SDS011;25938;48.470;1.486;2022-11-15T07:03:52;3.78;;;0.70;;
39426;SDS011;25938;48.470;1.486;2022-11-15T07:06:18;5.88;;;0.77;;
39426;SDS011;25938;48.470;1.486;2022-11-15T07:08:44;1.25;;;0.82;;
39426;SDS011;25938;48.470;1.486;2022-11-15T07:11:10;1.88;;;0.90;;
39426;SDS011;25938;48.470;1.486;2022-11-15T07:13:36;1.13;;;0.80;;
39426;SDS011;25938;48.470;1.486;2022-11-15T07:16:03;2.33;;;0.77;;
39426;SDS011;25938;48.470;1.486;2022-11-15T07:18:30;3.00;;;0.60;;
39426;SDS011;25938;48.470;1.486;2022-11-15T07:20:59;3.50;;;0.60;;
39426;SDS011;25938;48.470;1.486;2022-11-15T07:23:25;0.65;;;0.30;;
39426;SDS011;25938;48.470;1.486;2022-11-15T07:25:51;3.25;;;1.00;;
39426;SDS011;25938;48.470;1.486;2022-11-15T07:28:17;2.33;;;0.68;;
39426;SDS011;25938;48.470;1.486;2022-11-15T07:30:43;4.10;;;1.23;;
39426;SDS011;25938;48.470;1.486;2022-11-15T07:33:09;4.38;;;0.88;;
39426;SDS011;25938;48.470;1.486;2022-11-15T07:35:36;3.85;;;0.70;;
39426;SDS011;25938;48.470;1.486;2022-11-15T07:38:02;3.90;;;0.90;;
39426;SDS011;25938;48.470;1.486;2022-11-15T07:40:29;5.00;;;1.17;;
39426;SDS011;25938;48.470;1.486;2022-11-15T07:43:04;6.03;;;0.88;;
39426;SDS011;25938;48.470;1.486;2022-11-15T07:45:30;3.97;;;0.63;;
39426;SDS011;25938;48.470;1.486;2022-11-15T07:47:58;1.13;;;0.90;;
39426;SDS011;25938;48.470;1.486;2022-11-15T07:50:24;0.98;;;0.38;;
39426;SDS011;25938;48.470;1.486;2022-11-15T07:52:57;3.15;;;0.80;;
39426;SDS011;25938;48.470;1.486;2022-11-15T07:55:24;4.65;;;0.55;;
39426;SDS011;25938;48.470;1.486;2022-11-15T07:57:50;1.92;;;0.45;;
39426;SDS011;25938;48.470;1.486;2022-11-15T08:00:16;1.08;;;0.52;;
39426;SDS011;25938;48.470;1.486;2022-11-15T08:02:43;3.17;;;1.20;;
39426;SDS011;25938;48.470;1.486;2022-11-15T08:05:09;0.80;;;0.50;;
39426;SDS011;25938;48.470;1.486;2022-11-15T08:07:35;2.85;;;0.70;;
39426;SDS011;25938;48.470;1.486;2022-11-15T08:10:03;1.67;;;0.80;;
39426;SDS011;25938;48.470;1.486;2022-11-15T08:12:30;1.98;;;0.55;;
39426;SDS011;25938;48.470;1.486;2022-11-15T08:14:56;4.63;;;1.52;;
39426;SDS011;25938;48.470;1.486;2022-11-15T08:17:23;3.13;;;1.30;;
39426;SDS011;25938;48.470;1.486;2022-11-15T08:19:49;3.17;;;0.70;;
39426;SDS011;25938;48.470;1.486;2022-11-15T08:22:16;2.10;;;0.68;;
39426;SDS011;25938;48.470;1.486;2022-11-15T08:24:42;0.80;;;0.50;;
39426;SDS011;25938;48.470;1.486;2022-11-15T08:27:09;1.73;;;0.50;;
39426;SDS011;25938;48.470;1.486;2022-11-15T08:29:40;1.63;;;0.50;;
39426;SDS011;25938;48.470;1.486;2022-11-15T08:32:06;2.42;;;0.95;;
39426;SDS011;25938;48.470;1.486;2022-11-15T08:34:32;6.60;;;1.90;;
39426;SDS011;25938;48.470;1.486;2022-11-15T08:36:58;2.22;;;1.20;;
39426;SDS011;25938;48.470;1.486;2022-11-15T08:39:24;3.05;;;0.88;;
39426;SDS011;25938;48.470;1.486;2022-11-15T08:41:50;4.32;;;1.05;;
39426;SDS011;25938;48.470;1.486;2022-11-15T08:44:16;2.92;;;1.50;;
39426;SDS011;25938;48.470;1.486;2022-11-15T08:46:44;7.80;;;1.80;;
39426;SDS011;25938;48.470;1.486;2022-11-15T08:49:11;1.75;;;0.75;;
39426;SDS011;25938;48.470;1.486;2022-11-15T08:51:37;1.70;;;0.93;;
39426;SDS011;25938;48.470;1.486;2022-11-15T08:54:03;0.93;;;0.70;;
39426;SDS011;25938;48.470;1.486;2022-11-15T08:56:29;1.02;;;0.70;;
39426;SDS011;25938;48.470;1.486;2022-11-15T08:58:55;2.53;;;0.77;;
39426;SDS011;25938;48.470;1.486;2022-11-15T09:01:21;1.77;;;1.15;;
39426;SDS011;25938;48.470;1.486;2022-11-15T09:03:47;3.20;;;1.40;;
39426;SDS011;25938;48.470;1.486;2022-11-15T09:06:13;1.88;;;0.70;;
39426;SDS011;25938;48.470;1.486;2022-11-15T09:08:40;2.00;;;0.90;;
39426;SDS011;25938;48.470;1.486;2022-11-15T09:11:07;1.42;;;0.75;;
39426;SDS011;25938;48.470;1.486;2022-11-15T09:13:33;3.38;;;0.40;;
39426;SDS011;25938;48.470;1.486;2022-11-15T09:16:02;3.17;;;0.60;;
39426;SDS011;25938;48.470;1.486;2022-11-15T09:18:28;1.63;;;0.50;;
39426;SDS011;25938;48.470;1.486;2022-11-15T09:20:55;2.78;;;0.80;;
39426;SDS011;25938;48.470;1.486;2022-11-15T09:23:22;0.52;;;0.38;;
39426;SDS011;25938;48.470;1.486;2022-11-15T09:25:48;2.95;;;0.90;;
39426;SDS011;25938;48.470;1.486;2022-11-15T09:28:14;3.33;;;0.70;;
39426;SDS011;25938;48.470;1.486;2022-11-15T09:30:40;2.83;;;1.27;;
39426;SDS011;25938;48.470;1.486;2022-11-15T09:33:10;0.80;;;0.40;;
39426;SDS011;25938;48.470;1.486;2022-11-15T09:35:37;1.65;;;0.40;;
39426;SDS011;25938;48.470;1.486;2022-11-15T09:38:03;0.75;;;0.60;;
39426;SDS011;25938;48.470;1.486;2022-11-15T09:40:32;3.17;;;0.60;;
39426;SDS011;25938;48.470;1.486;2022-11-15T09:43:05;3.47;;;1.10;;
39426;SDS011;25938;48.470;1.486;2022-11-15T09:45:37;2.85;;;0.75;;
39426;SDS011;25938;48.470;1.486;2022-11-15T09:50:39;2.25;;;0.80;;
39426;SDS011;25938;48.470;1.486;2022-11-15T09:55:58;0.80;;;0.32;;
39426;SDS011;25938;48.470;1.486;2022-11-15T09:58:27;1.13;;;0.52;;
39426;SDS011;25938;48.470;1.486;2022-11-15T10:00:54;1.40;;;0.52;;
39426;SDS011;25938;48.470;1.486;2022-11-15T10:03:27;1.55;;;0.55;;
39426;SDS011;25938;48.470;1.486;2022-11-15T10:05:55;1.13;;;0.43;;
39426;SDS011;25938;48.470;1.486;2022-11-15T10:08:26;6.43;;;1.15;;
39426;SDS011;25938;48.470;1.486;2022-11-15T10:10:58;2.20;;;1.05;;
39426;SDS011;25938;48.470;1.486;2022-11-15T10:13:25;4.82;;;1.92;;
39426;SDS011;25938;48.470;1.486;2022-11-15T10:15:52;8.38;;;1.65;;
39426;SDS011;25938;48.470;1.486;2022-11-15T10:18:22;4.20;;;2.00;;
39426;SDS011;25938;48.470;1.486;2022-11-15T10:20:58;8.30;;;2.60;;
39426;SDS011;25938;48.470;1.486;2022-11-15T10:23:24;4.00;;;1.55;;
39426;SDS011;25938;48.470;1.486;2022-11-15T10:25:55;4.72;;;1.23;;
39426;SDS011;25938;48.470;1.486;2022-11-15T10:28:28;4.30;;;0.80;;
39426;SDS011;25938;48.470;1.486;2022-11-15T10:30:55;2.00;;;0.90;;
39426;SDS011;25938;48.470;1.486;2022-11-15T10:36:41;1.13;;;0.40;;
39426;SDS011;25938;48.470;1.486;2022-11-15T10:41:20;1.80;;;0.60;;
39426;SDS011;25938;48.470;1.486;2022-11-15T10:46:31;1.27;;;0.60;;
39426;SDS011;25938;48.470;1.486;2022-11-15T10:51:40;2.15;;;0.88;;
39426;SDS011;25938;48.470;1.486;2022-11-15T10:54:07;1.50;;;0.93;;
39426;SDS011;25938;48.470;1.486;2022-11-15T10:56:36;2.38;;;0.63;;
39426;SDS011;25938;48.470;1.486;2022-11-15T10:59:02;1.38;;;0.60;;
39426;SDS011;25938;48.470;1.486;2022-11-15T11:01:29;2.00;;;1.58;;
39426;SDS011;25938;48.470;1.486;2022-11-15T11:04:05;0.80;;;0.50;;
39426;SDS011;25938;48.470;1.486;2022-11-15T11:06:53;2.30;;;0.50;;
39426;SDS011;25938;48.470;1.486;2022-11-15T11:09:34;1.08;;;0.70;;
39426;SDS011;25938;48.470;1.486;2022-11-15T11:12:01;2.55;;;0.70;;
39426;SDS011;25938;48.470;1.486;2022-11-15T11:14:29;2.75;;;0.80;;
39426;SDS011;25938;48.470;1.486;2022-11-15T11:32:31;1.27;;;0.60;;
39426;SDS011;25938;48.470;1.486;2022-11-15T11:35:08;2.60;;;0.70;;
39426;SDS011;25938;48.470;1.486;2022-11-15T11:37:37;2.50;;;0.98;;
39426;SDS011;25938;48.470;1.486;2022-11-15T11:42:38;1.17;;;0.45;;
39426;SDS011;25938;48.470;1.486;2022-11-15T11:45:15;1.65;;;0.85;;
39426;SDS011;25938;48.470;1.486;2022-11-15T11:47:51;2.55;;;1.00;;
39426;SDS011;25938;48.470;1.486;2022-11-15T11:50:18;1.27;;;0.52;;
39426;SDS011;25938;48.470;1.486;2022-11-15T11:52:51;1.70;;;0.75;;
39426;SDS011;25938;48.470;1.486;2022-11-15T11:55:28;2.08;;;0.60;;
39426;SDS011;25938;48.470;1.486;2022-11-15T12:00:46;1.35;;;0.80;;
39426;SDS011;25938;48.470;1.486;2022-11-15T12:03:24;0.60;;;0.60;;
39426;SDS011;25938;48.470;1.486;2022-11-15T12:05:54;2.47;;;1.50;;
39426;SDS011;25938;48.470;1.486;2022-11-15T12:08:32;2.08;;;0.70;;
39426;SDS011;25938;48.470;1.486;2022-11-15T12:13:30;1.17;;;0.68;;
39426;SDS011;25938;48.470;1.486;2022-11-15T12:16:16;1.92;;;0.50;;
39426;SDS011;25938;48.470;1.486;2022-11-15T12:18:44;0.65;;;0.45;;
39426;SDS011;25938;48.470;1.486;2022-11-15T12:23:49;2.28;;;1.73;;
39426;SDS011;25938;48.470;1.486;2022-11-15T12:26:20;1.98;;;0.75;;
39426;SDS011;25938;48.470;1.486;2022-11-15T12:28:56;2.00;;;0.93;;
39426;SDS011;25938;48.470;1.486;2022-11-15T12:31:36;1.45;;;0.80;;
39426;SDS011;25938;48.470;1.486;2022-11-15T12:34:04;1.60;;;0.82;;
39426;SDS011;25938;48.470;1.486;2022-11-15T12:36:39;1.70;;;1.13;;
39426;SDS011;25938;48.470;1.486;2022-11-15T12:39:10;2.10;;;1.08;;
39426;SDS011;25938;48.470;1.486;2022-11-15T12:41:40;2.17;;;0.80;;
39426;SDS011;25938;48.470;1.486;2022-11-15T12:44:13;1.58;;;1.17;;
39426;SDS011;25938;48.470;1.486;2022-11-15T13:27:51;1.65;;;0.55;;
39426;SDS011;25938;48.470;1.486;2022-11-15T13:30:26;6.15;;;1.20;;
39426;SDS011;25938;48.470;1.486;2022-11-15T13:32:53;1.45;;;0.88;;
39426;SDS011;25938;48.470;1.486;2022-11-15T13:35:23;3.33;;;0.90;;
39426;SDS011;25938;48.470;1.486;2022-11-15T13:37:50;2.10;;;1.42;;
39426;SDS011;25938;48.470;1.486;2022-11-15T13:40:27;1.35;;;0.65;;
39426;SDS011;25938;48.470;1.486;2022-11-15T13:42:55;2.53;;;0.68;;
39426;SDS011;25938;48.470;1.486;2022-11-15T13:45:22;1.25;;;0.40;;
39426;SDS011;25938;48.470;1.486;2022-11-15T13:47:52;2.60;;;1.17;;
39426;SDS011;25938;48.470;1.486;2022-11-15T13:50:19;2.40;;;1.38;;
39426;SDS011;25938;48.470;1.486;2022-11-15T13:52:46;1.65;;;0.60;;
39426;SDS011;25938;48.470;1.486;2022-11-15T13:55:15;1.50;;;1.08;;
39426;SDS011;25938;48.470;1.486;2022-11-15T13:57:48;1.30;;;0.93;;
39426;SDS011;25938;48.470;1.486;2022-11-15T14:02:55;1.63;;;1.30;;
39426;SDS011;25938;48.470;1.486;2022-11-15T14:05:22;3.90;;;0.98;;
39426;SDS011;25938;48.470;1.486;2022-11-15T14:07:56;1.52;;;0.93;;
39426;SDS011;25938;48.470;1.486;2022-11-15T14:12:55;1.92;;;1.02;;
39426;SDS011;25938;48.470;1.486;2022-11-15T14:15:27;5.68;;;1.63;;
39426;SDS011;25938;48.470;1.486;2022-11-15T14:17:54;1.90;;;1.20;;
39426;SDS011;25938;48.470;1.486;2022-11-15T14:22:53;3.80;;;1.02;;
39426;SDS011;25938;48.470;1.486;2022-11-15T14:25:20;1.48;;;0.95;;
39426;SDS011;25938;48.470;1.486;2022-11-15T14:30:52;2.05;;;1.00;;
39426;SDS011;25938;48.470;1.486;2022-11-15T14:33:22;2.35;;;1.48;;
39426;SDS011;25938;48.470;1.486;2022-11-15T14:35:49;2.80;;;1.40;;
39426;SDS011;25938;48.470;1.486;2022-11-15T14:38:15;3.85;;;1.10;;
39426;SDS011;25938;48.470;1.486;2022-11-15T14:40:42;2.08;;;1.52;;
39426;SDS011;25938;48.470;1.486;2022-11-15T14:43:09;2.83;;;1.48;;
39426;SDS011;25938;48.470;1.486;2022-11-15T14:45:36;1.90;;;1.17;;
39426;SDS011;25938;48.470;1.486;2022-11-15T14:48:02;2.58;;;1.20;;
39426;SDS011;25938;48.470;1.486;2022-11-15T14:50:28;2.10;;;1.38;;
39426;SDS011;25938;48.470;1.486;2022-11-15T14:52:54;3.15;;;1.33;;
39426;SDS011;25938;48.470;1.486;2022-11-15T14:55:21;2.83;;;1.38;;
39426;SDS011;25938;48.470;1.486;2022-11-15T14:57:48;1.60;;;1.08;;
39426;SDS011;25938;48.470;1.486;2022-11-15T15:00:14;1.60;;;1.20;;
39426;SDS011;25938;48.470;1.486;2022-11-15T15:02:41;4.97;;;1.13;;
39426;SDS011;25938;48.470;1.486;2022-11-15T15:07:49;2.35;;;0.82;;
39426;SDS011;25938;48.470;1.486;2022-11-15T15:10:16;2.15;;;2.03;;
39426;SDS011;25938;48.470;1.486;2022-11-15T15:12:42;1.77;;;1.40;;
39426;SDS011;25938;48.470;1.486;2022-11-15T15:15:21;6.20;;;1.98;;
39426;SDS011;25938;48.470;1.486;2022-11-15T15:17:47;2.83;;;1.63;;
39426;SDS011;25938;48.470;1.486;2022-11-15T15:20:13;2.38;;;1.35;;
39426;SDS011;25938;48.470;1.486;2022-11-15T15:22:40;3.00;;;1.90;;
39426;SDS011;25938;48.470;1.486;2022-11-15T15:27:52;2.97;;;1.92;;
39426;SDS011;25938;48.470;1.486;2022-11-15T15:30:18;3.33;;;2.35;;
39426;SDS011;25938;48.470;1.486;2022-11-15T15:32:44;3.35;;;1.75;;
39426;SDS011;25938;48.470;1.486;2022-11-15T15:35:13;4.53;;;1.42;;
39426;SDS011;25938;48.470;1.486;2022-11-15T15:37:40;2.40;;;1.65;;
39426;SDS011;25938;48.470;1.486;2022-11-15T15:40:10;2.45;;;1.33;;
39426;SDS011;25938;48.470;1.486;2022-11-15T15:42:38;1.77;;;1.42;;
39426;SDS011;25938;48.470;1.486;2022-11-15T15:45:04;2.10;;;1.15;;
39426;SDS011;25938;48.470;1.486;2022-11-15T15:47:30;1.77;;;1.27;;
39426;SDS011;25938;48.470;1.486;2022-11-15T15:49:56;2.05;;;1.50;;
39426;SDS011;25938;48.470;1.486;2022-11-15T15:52:22;2.15;;;1.67;;
39426;SDS011;25938;48.470;1.486;2022-11-15T15:54:50;3.40;;;1.77;;
39426;SDS011;25938;48.470;1.486;2022-11-15T15:57:16;2.42;;;1.20;;
39426;SDS011;25938;48.470;1.486;2022-11-15T15:59:42;2.53;;;1.48;;
39426;SDS011;25938;48.470;1.486;2022-11-15T16:02:09;2.05;;;1.17;;
39426;SDS011;25938;48.470;1.486;2022-11-15T16:04:37;3.97;;;1.73;;
39426;SDS011;25938;48.470;1.486;2022-11-15T16:07:03;1.65;;;1.55;;
39426;SDS011;25938;48.470;1.486;2022-11-15T16:09:29;2.22;;;1.55;;
39426;SDS011;25938;48.470;1.486;2022-11-15T16:12:14;3.03;;;1.85;;
39426;SDS011;25938;48.470;1.486;2022-11-15T16:14:41;3.15;;;2.50;;
39426;SDS011;25938;48.470;1.486;2022-11-15T16:17:17;2.75;;;1.70;;
39426;SDS011;25938;48.470;1.486;2022-11-15T16:19:44;4.60;;;1.83;;
39426;SDS011;25938;48.470;1.486;2022-11-15T16:22:11;3.25;;;2.13;;
39426;SDS011;25938;48.470;1.486;2022-11-15T16:24:37;5.32;;;2.75;;
39426;SDS011;25938;48.470;1.486;2022-11-15T16:27:04;5.05;;;2.67;;
39426;SDS011;25938;48.470;1.486;2022-11-15T16:29:30;6.65;;;3.25;;
39426;SDS011;25938;48.470;1.486;2022-11-15T16:31:56;5.55;;;3.35;;
39426;SDS011;25938;48.470;1.486;2022-11-15T16:34:22;3.63;;;2.10;;
39426;SDS011;25938;48.470;1.486;2022-11-15T16:36:49;1.63;;;1.52;;
39426;SDS011;25938;48.470;1.486;2022-11-15T16:39:15;2.35;;;1.40;;
39426;SDS011;25938;48.470;1.486;2022-11-15T16:41:43;4.25;;;2.10;;
39426;SDS011;25938;48.470;1.486;2022-11-15T16:44:12;5.47;;;2.45;;
39426;SDS011;25938;48.470;1.486;2022-11-15T16:46:38;3.65;;;2.53;;
39426;SDS011;25938;48.470;1.486;2022-11-15T16:49:08;2.65;;;1.60;;
39426;SDS011;25938;48.470;1.486;2022-11-15T16:51:38;3.57;;;1.47;;
39426;SDS011;25938;48.470;1.486;2022-11-15T16:54:05;4.25;;;2.17;;
39426;SDS011;25938;48.470;1.486;2022-11-15T16:56:31;4.72;;;1.95;;
39426;SDS011;25938;48.470;1.486;2022-11-15T16:58:58;2.92;;;1.90;;
39426;SDS011;25938;48.470;1.486;2022-11-15T17:01:29;6.15;;;2.70;;
39426;SDS011;25938;48.470;1.486;2022-11-15T17:03:55;2.30;;;1.95;;
39426;SDS011;25938;48.470;1.486;2022-11-15T17:06:22;3.15;;;2.28;;
39426;SDS011;25938;48.470;1.486;2022-11-15T17:08:48;4.78;;;1.98;;
39426;SDS011;25938;48.470;1.486;2022-11-15T17:11:16;3.20;;;1.88;;